createdAt,value
2022-12-16T00:01:31.104Z,-7.10
2022-12-16T00:04:03.861Z,-7.20
2022-12-16T00:06:36.549Z,-7.10
2022-12-16T00:09:06.879Z,-7.00
2022-12-16T00:11:36.959Z,-7.00
2022-12-16T00:14:07.805Z,-7.00
2022-12-16T00:16:38.226Z,-7.00
2022-12-16T00:19:12.955Z,-7.00
2022-12-16T00:21:43.037Z,-7.20
2022-12-16T00:24:13.236Z,-7.20
2022-12-16T00:26:43.336Z,-7.20
2022-12-16T00:29:13.771Z,-7.20
2022-12-16T00:31:48.320Z,-7.10
2022-12-16T00:34:21.468Z,-7.20
2022-12-16T00:36:51.665Z,-7.30
2022-12-16T00:39:22.400Z,-7.30
2022-12-16T00:41:52.499Z,-7.30
2022-12-16T00:44:22.674Z,-7.20
2022-12-16T00:46:52.803Z,-7.10
2022-12-16T00:49:30.628Z,-7.10
2022-12-16T00:52:01.106Z,-7.10
2022-12-16T00:54:31.235Z,-7.00
2022-12-16T00:57:01.584Z,-7.00
2022-12-16T00:59:31.656Z,-7.10
2022-12-16T01:02:02.308Z,-7.20
2022-12-16T01:04:35.126Z,-7.20
2022-12-16T01:07:05.921Z,-7.30
2022-12-16T01:09:36.583Z,-7.30
2022-12-16T01:12:07.131Z,-7.30
2022-12-16T01:14:37.588Z,-7.40
2022-12-16T01:17:07.711Z,-7.40
2022-12-16T01:19:40.340Z,-7.40
2022-12-16T01:22:10.494Z,-7.40
2022-12-16T01:24:40.711Z,-7.50
2022-12-16T01:27:10.853Z,-7.50
2022-12-16T01:29:41.121Z,-7.50
2022-12-16T01:32:16.123Z,-7.60
2022-12-16T01:34:55.062Z,-7.60
2022-12-16T01:37:26.831Z,-7.60
2022-12-16T01:39:56.923Z,-7.70
2022-12-16T01:42:28.887Z,-7.70
2022-12-16T01:44:59.002Z,-7.70
2022-12-16T01:47:36.080Z,-7.60
2022-12-16T01:50:17.574Z,-7.60
2022-12-16T01:52:55.756Z,-7.60
2022-12-16T01:55:34.141Z,-7.60
2022-12-16T01:58:10.573Z,-7.70
2022-12-16T02:00:43.486Z,-7.70
2022-12-16T02:03:14.295Z,-7.60
2022-12-16T02:05:50.026Z,-7.60
2022-12-16T02:08:22.699Z,-7.50
2022-12-16T02:11:13.621Z,-7.50
2022-12-16T02:14:06.505Z,-7.40
2022-12-16T02:16:48.354Z,-7.50
2022-12-16T02:20:06.506Z,-7.40
2022-12-16T02:23:02.110Z,-7.50
2022-12-16T02:26:25.570Z,-7.60
2022-12-16T02:29:41.154Z,-7.60
2022-12-16T02:32:29.335Z,-7.70
2022-12-16T02:35:11.999Z,-7.70
2022-12-16T02:37:55.089Z,-7.70
2022-12-16T02:40:31.777Z,-7.80
2022-12-16T02:43:09.915Z,-7.80
2022-12-16T02:45:45.423Z,-7.80
2022-12-16T02:48:18.097Z,-7.70
2022-12-16T02:50:54.896Z,-7.70
2022-12-16T02:53:27.959Z,-7.80
2022-12-16T02:56:12.695Z,-7.80
2022-12-16T02:58:53.383Z,-7.70
2022-12-16T03:01:33.993Z,-7.70
2022-12-16T03:04:15.946Z,-7.70
2022-12-16T03:06:51.510Z,-7.70
2022-12-16T03:09:32.251Z,-7.60
2022-12-16T03:12:08.301Z,-7.50
2022-12-16T03:14:43.521Z,-7.50
2022-12-16T03:17:18.418Z,-7.50
2022-12-16T03:19:59.235Z,-7.60
2022-12-16T03:22:34.840Z,-7.60
2022-12-16T03:25:05.303Z,-7.60
2022-12-16T03:27:46.256Z,-7.70
2022-12-16T03:30:23.728Z,-7.60
2022-12-16T03:33:02.923Z,-7.80
2022-12-16T03:35:42.561Z,-7.80
2022-12-16T03:38:16.562Z,-7.80
2022-12-16T03:40:48.279Z,-7.80
2022-12-16T03:43:19.979Z,-7.70
2022-12-16T03:45:59.593Z,-7.70
2022-12-16T03:48:30.068Z,-7.60
2022-12-16T03:51:03.767Z,-7.60
2022-12-16T03:53:34.284Z,-7.60
2022-12-16T03:56:07.170Z,-7.60
2022-12-16T03:58:40.434Z,-7.50
2022-12-16T04:01:15.036Z,-7.60
2022-12-16T04:03:45.320Z,-7.60
2022-12-16T04:06:18.652Z,-7.70
2022-12-16T04:08:49.499Z,-7.60
2022-12-16T04:11:32.100Z,-7.70
2022-12-16T04:14:14.980Z,-7.70
2022-12-16T04:16:58.458Z,-7.80
2022-12-16T04:19:45.750Z,-7.80
2022-12-16T04:22:38.027Z,-7.80
2022-12-16T04:25:16.607Z,-7.70
2022-12-16T04:27:48.711Z,-7.70
2022-12-16T04:30:21.878Z,-7.70
2022-12-16T04:33:25.451Z,-7.70
2022-12-16T04:36:07.935Z,-7.70
2022-12-16T04:38:53.831Z,-7.70
2022-12-16T04:41:36.408Z,-6.50
2022-12-16T04:44:21.334Z,-6.70
2022-12-16T04:47:04.529Z,-6.90
2022-12-16T04:49:48.827Z,-7.10
2022-12-16T04:52:31.698Z,-7.30
2022-12-16T04:55:24.039Z,-7.50
2022-12-16T04:58:09.681Z,-7.50
2022-12-16T05:00:52.306Z,-7.60
2022-12-16T05:03:35.453Z,-7.60
2022-12-16T05:06:18.310Z,-7.70
2022-12-16T05:09:00.802Z,-7.70
2022-12-16T05:11:45.997Z,-7.70
2022-12-16T05:14:28.474Z,-7.80
2022-12-16T05:17:11.093Z,-7.80
2022-12-16T05:19:53.587Z,-7.80
2022-12-16T05:22:36.171Z,-7.90
2022-12-16T05:25:19.158Z,-7.90
2022-12-16T05:28:06.543Z,-7.90
2022-12-16T05:30:49.059Z,-8.00
2022-12-16T05:33:31.856Z,-8.00
2022-12-16T05:36:14.566Z,-8.00
2022-12-16T05:38:57.067Z,-8.10
2022-12-16T05:41:39.958Z,-8.00
2022-12-16T05:44:27.387Z,-7.90
2022-12-16T05:47:10.007Z,-7.80
2022-12-16T05:49:52.632Z,-7.90
2022-12-16T05:52:35.856Z,-8.00
2022-12-16T05:55:21.832Z,-8.00
2022-12-16T05:58:05.563Z,-7.90
2022-12-16T06:00:50.940Z,-8.00
2022-12-16T06:03:33.973Z,-8.10
2022-12-16T06:06:16.739Z,-8.10
2022-12-16T06:08:59.348Z,-8.10
2022-12-16T06:11:41.887Z,-8.10
2022-12-16T06:14:24.401Z,-8.00
2022-12-16T06:17:09.479Z,-8.00
2022-12-16T06:19:53.796Z,-8.00
2022-12-16T06:22:36.292Z,-8.00
2022-12-16T06:25:19.946Z,-8.10
2022-12-16T06:28:06.675Z,-8.10
2022-12-16T06:30:49.280Z,-8.10
2022-12-16T06:33:34.639Z,-8.10
2022-12-16T06:36:17.639Z,-8.10
2022-12-16T06:39:07.337Z,-8.00
2022-12-16T06:41:50.019Z,-8.00
2022-12-16T06:44:32.542Z,-8.00
2022-12-16T06:47:15.112Z,-8.00
2022-12-16T06:50:00.271Z,-8.00
2022-12-16T06:52:42.760Z,-8.00
2022-12-16T06:55:25.301Z,-8.00
2022-12-16T06:58:13.102Z,-8.10
2022-12-16T07:00:55.737Z,-8.10
2022-12-16T07:03:38.664Z,-8.00
2022-12-16T07:06:24.151Z,-8.00
2022-12-16T07:09:06.628Z,-8.00
2022-12-16T07:11:49.139Z,-8.00
2022-12-16T07:14:31.636Z,-8.00
2022-12-16T07:17:17.266Z,-8.00
2022-12-16T07:20:00.095Z,-8.10
2022-12-16T07:22:45.527Z,-8.00
2022-12-16T07:25:28.291Z,-8.00
2022-12-16T07:28:15.313Z,-7.90
2022-12-16T07:30:59.330Z,-8.00
2022-12-16T07:33:41.940Z,-7.90
2022-12-16T07:36:24.777Z,-7.90
2022-12-16T07:39:09.879Z,-7.80
2022-12-16T07:41:52.518Z,-7.90
2022-12-16T07:44:34.987Z,-7.80
2022-12-16T07:47:17.507Z,-7.80
2022-12-16T07:50:00.214Z,-7.80
2022-12-16T07:52:42.718Z,-7.80
2022-12-16T07:55:28.034Z,-7.80
2022-12-16T07:58:10.532Z,-7.70
2022-12-16T08:00:53.254Z,-7.60
2022-12-16T08:03:36.654Z,-7.60
2022-12-16T08:06:20.469Z,-7.50
2022-12-16T08:09:03.006Z,-7.40
2022-12-16T08:11:48.213Z,-7.30
2022-12-16T08:14:30.735Z,-7.20
2022-12-16T08:17:13.342Z,-7.20
2022-12-16T08:19:56.931Z,-7.30
2022-12-16T08:22:39.467Z,-7.20
2022-12-16T08:25:22.776Z,-7.20
2022-12-16T08:28:12.586Z,-7.10
2022-12-16T08:30:55.151Z,-6.90
2022-12-16T08:33:37.921Z,-6.80
2022-12-16T08:36:22.201Z,-6.70
2022-12-16T08:39:04.715Z,-6.60
2022-12-16T08:41:48.389Z,-6.50
2022-12-16T08:44:37.897Z,-6.50
2022-12-16T08:47:29.270Z,-6.30
2022-12-16T08:50:11.831Z,-6.00
2022-12-16T08:52:54.360Z,-5.70
2022-12-16T08:55:51.785Z,-5.50
2022-12-16T08:58:38.307Z,-5.50
2022-12-16T09:01:23.644Z,-5.20
2022-12-16T09:04:06.271Z,-5.00
2022-12-16T09:07:03.663Z,-4.80
2022-12-16T09:09:48.924Z,-4.70
2022-12-16T09:12:31.746Z,-4.30
2022-12-16T09:15:14.286Z,-3.80
2022-12-16T09:17:59.384Z,-2.90
2022-12-16T09:20:52.250Z,-1.50
2022-12-16T09:23:35.072Z,-0.90
2022-12-16T09:26:18.015Z,-0.30
2022-12-16T09:29:00.567Z,0.80
2022-12-16T09:31:43.189Z,1.30
2022-12-16T09:34:42.607Z,1.50
2022-12-16T09:37:25.795Z,2.20
2022-12-16T09:40:08.378Z,4.30
2022-12-16T09:43:04.434Z,4.60
2022-12-16T09:46:01.202Z,4.80
2022-12-16T09:48:54.243Z,4.60
2022-12-16T09:51:41.419Z,4.60
2022-12-16T09:54:30.807Z,5.30
2022-12-16T09:57:18.586Z,5.80
2022-12-16T10:00:10.812Z,6.40
2022-12-16T10:02:54.321Z,6.20
2022-12-16T10:06:03.432Z,5.10
2022-12-16T10:09:00.188Z,5.20
2022-12-16T10:11:58.534Z,5.90
2022-12-16T10:14:51.269Z,5.60
2022-12-16T10:17:40.233Z,4.70
2022-12-16T10:20:35.134Z,5.00
2022-12-16T10:23:29.140Z,5.90
2022-12-16T10:26:23.293Z,5.00
2022-12-16T10:29:16.903Z,4.60
2022-12-16T10:31:59.593Z,4.40
2022-12-16T10:34:48.278Z,4.70
2022-12-16T10:37:48.878Z,5.30
2022-12-16T10:40:38.799Z,5.40
2022-12-16T10:43:33.907Z,4.90
2022-12-16T10:46:29.082Z,4.90
2022-12-16T10:49:12.179Z,4.70
2022-12-16T10:51:56.865Z,4.30
2022-12-16T10:54:48.688Z,3.80
2022-12-16T10:57:45.740Z,4.70
2022-12-16T11:00:35.707Z,4.20
2022-12-16T11:03:36.836Z,4.60
2022-12-16T11:06:20.876Z,4.70
2022-12-16T11:09:04.530Z,3.90
2022-12-16T11:11:47.942Z,3.90
2022-12-16T11:14:38.525Z,3.80
2022-12-16T11:17:34.942Z,3.60
2022-12-16T11:20:31.634Z,3.30
2022-12-16T11:23:31.427Z,3.20
2022-12-16T11:26:33.082Z,3.80
2022-12-16T11:29:28.370Z,3.60
2022-12-16T11:32:18.719Z,4.10
2022-12-16T11:35:10.228Z,4.20
2022-12-16T11:37:57.051Z,4.40
2022-12-16T11:40:40.237Z,4.50
2022-12-16T11:43:27.342Z,3.90
2022-12-16T11:46:12.167Z,4.00
2022-12-16T11:49:02.631Z,3.70
2022-12-16T11:52:03.768Z,3.30
2022-12-16T11:55:55.521Z,3.40
2022-12-16T11:58:41.400Z,3.10
2022-12-16T12:01:32.556Z,3.10
2022-12-16T12:04:15.301Z,2.60
2022-12-16T12:07:37.447Z,2.60
2022-12-16T12:10:41.553Z,2.80
2022-12-16T12:13:46.457Z,2.30
2022-12-16T12:16:40.933Z,2.10
2022-12-16T12:19:40.792Z,2.00
2022-12-16T12:22:49.515Z,1.80
2022-12-16T12:25:41.997Z,1.70
2022-12-16T12:28:44.887Z,1.60
2022-12-16T12:31:48.425Z,1.60
2022-12-16T12:34:41.390Z,1.30
2022-12-16T12:37:38.909Z,1.20
2022-12-16T12:40:43.631Z,1.30
2022-12-16T12:43:45.598Z,1.40
2022-12-16T12:46:39.082Z,1.70
2022-12-16T12:49:32.950Z,1.40
2022-12-16T12:52:30.616Z,1.10
2022-12-16T12:55:30.547Z,0.90
2022-12-16T12:58:17.740Z,0.10
2022-12-16T13:01:10.459Z,-0.20
2022-12-16T13:04:02.066Z,-0.50
2022-12-16T13:06:45.400Z,-0.50
2022-12-16T13:09:48.290Z,-0.60
2022-12-16T13:12:53.399Z,-0.90
2022-12-16T13:15:51.238Z,-0.80
2022-12-16T13:18:42.353Z,-0.80
2022-12-16T13:22:04.192Z,-0.90
2022-12-16T13:25:02.289Z,-1.10
2022-12-16T13:28:08.079Z,-1.00
2022-12-16T13:30:51.350Z,-1.00
2022-12-16T13:33:51.360Z,-1.10
2022-12-16T13:36:34.604Z,-1.30
2022-12-16T13:39:38.693Z,-1.20
2022-12-16T13:42:24.315Z,-1.20
2022-12-16T13:45:15.200Z,-1.20
2022-12-16T13:48:21.042Z,-1.40
2022-12-16T13:51:06.652Z,-1.70
2022-12-16T13:53:55.843Z,-1.80
2022-12-16T13:56:49.157Z,-1.60
2022-12-16T13:59:37.911Z,-1.60
2022-12-16T14:02:42.709Z,-1.50
2022-12-16T14:05:37.623Z,-1.40
2022-12-16T14:08:30.202Z,-1.40
2022-12-16T14:11:29.999Z,-1.30
2022-12-16T14:14:24.046Z,-1.40
2022-12-16T14:17:13.464Z,-1.50
2022-12-16T14:20:23.520Z,-1.60
2022-12-16T14:23:47.352Z,-1.70
2022-12-16T14:26:28.638Z,-1.80
2022-12-16T14:29:26.630Z,-1.80
2022-12-16T14:32:09.301Z,-1.70
2022-12-16T14:34:54.857Z,-1.60
2022-12-16T14:37:52.263Z,-1.50
2022-12-16T14:40:38.109Z,-1.50
2022-12-16T14:43:28.462Z,-1.50
2022-12-16T14:46:11.144Z,-1.70
2022-12-16T14:48:54.571Z,-1.80
2022-12-16T14:51:41.890Z,-1.80
2022-12-16T14:54:41.632Z,-1.80
2022-12-16T14:57:30.803Z,-1.80
2022-12-16T15:00:27.112Z,-1.70
2022-12-16T15:03:15.138Z,-1.60
2022-12-16T15:05:59.827Z,-1.70
2022-12-16T15:08:46.395Z,-1.60
2022-12-16T15:11:36.296Z,-1.60
2022-12-16T15:14:20.280Z,-1.50
2022-12-16T15:17:06.049Z,-1.50
2022-12-16T15:20:03.283Z,-1.40
2022-12-16T15:22:47.320Z,-1.40
2022-12-16T15:25:38.079Z,-1.50
2022-12-16T15:28:51.789Z,-1.50
2022-12-16T15:31:41.506Z,-1.60
2022-12-16T15:35:07.277Z,-1.50
2022-12-16T15:37:59.148Z,-1.50
2022-12-16T15:40:48.919Z,-1.50
2022-12-16T15:43:46.602Z,-1.60
2022-12-16T15:47:03.178Z,-1.70
2022-12-16T15:49:53.308Z,-1.70
2022-12-16T15:52:50.466Z,-1.70
2022-12-16T15:55:48.715Z,-1.60
2022-12-16T15:58:46.791Z,-1.70
2022-12-16T16:01:33.098Z,-1.60
2022-12-16T16:04:16.505Z,-1.40
2022-12-16T16:07:04.246Z,-1.50
2022-12-16T16:09:50.914Z,-1.50
2022-12-16T16:12:51.392Z,-1.50
2022-12-16T16:15:36.637Z,-1.50
2022-12-16T16:18:21.110Z,-1.50
2022-12-16T16:21:05.316Z,-1.50
2022-12-16T16:23:48.168Z,-1.40
2022-12-16T16:26:33.545Z,-1.40
2022-12-16T16:29:16.900Z,-1.20
2022-12-16T16:32:04.321Z,-1.00
2022-12-16T16:34:47.628Z,-1.10
2022-12-16T16:37:34.094Z,-1.10
2022-12-16T16:40:17.798Z,-1.00
2022-12-16T16:43:00.636Z,-0.90
2022-12-16T16:45:43.302Z,-1.00
2022-12-16T16:48:31.672Z,-1.00
2022-12-16T16:51:18.337Z,-0.90
2022-12-16T16:54:01.466Z,-0.80
2022-12-16T16:56:55.823Z,-1.00
2022-12-16T16:59:39.851Z,-1.00
2022-12-16T17:02:40.236Z,-0.70
2022-12-16T17:05:33.047Z,-0.70
2022-12-16T17:08:15.588Z,-0.70
2022-12-16T17:10:58.916Z,-0.80
2022-12-16T17:13:41.556Z,-0.70
2022-12-16T17:16:26.554Z,-0.70
2022-12-16T17:19:09.465Z,-0.80
2022-12-16T17:21:54.619Z,-0.90
2022-12-16T17:24:40.685Z,-0.90
2022-12-16T17:27:31.651Z,-0.80
2022-12-16T17:30:14.341Z,-0.50
2022-12-16T17:32:56.858Z,-0.50
2022-12-16T17:35:48.516Z,-0.60
2022-12-16T17:38:47.658Z,-0.60
2022-12-16T17:41:50.655Z,-0.70
2022-12-16T17:44:54.706Z,-0.60
2022-12-16T17:47:42.068Z,-0.50
2022-12-16T17:50:28.582Z,-0.50
2022-12-16T17:53:11.891Z,-0.70
2022-12-16T17:55:57.341Z,-0.60
2022-12-16T17:58:51.924Z,-0.60
2022-12-16T18:01:35.552Z,-0.70
2022-12-16T18:04:18.312Z,-0.80
2022-12-16T18:07:00.927Z,-0.90
2022-12-16T18:09:43.526Z,-1.00
2022-12-16T18:12:28.608Z,-0.90
2022-12-16T18:15:14.296Z,-0.80
2022-12-16T18:17:56.856Z,-0.80
2022-12-16T18:20:39.456Z,-0.70
2022-12-16T18:23:21.969Z,-0.50
2022-12-16T18:26:14.327Z,-0.50
2022-12-16T18:28:59.477Z,-0.30
2022-12-16T18:31:42.155Z,-0.40
2022-12-16T18:34:24.734Z,-0.40
2022-12-16T18:37:07.288Z,-0.30
2022-12-16T18:39:49.811Z,-0.50
2022-12-16T18:42:32.360Z,-0.60
2022-12-16T18:45:17.456Z,-0.70
2022-12-16T18:47:59.797Z,-0.70
2022-12-16T18:50:42.312Z,-0.60
2022-12-16T18:53:24.921Z,-0.70
2022-12-16T18:56:17.363Z,-0.60
2022-12-16T18:58:59.989Z,-0.70
2022-12-16T19:01:45.379Z,-0.70
2022-12-16T19:04:28.165Z,-0.60
2022-12-16T19:07:10.726Z,-0.30
2022-12-16T19:09:53.245Z,-0.10
2022-12-16T19:12:35.778Z,0.10
2022-12-16T19:15:18.455Z,-0.20
2022-12-16T19:18:09.251Z,-0.40
2022-12-16T19:20:51.885Z,-0.50
2022-12-16T19:23:34.688Z,-0.40
2022-12-16T19:26:18.090Z,0.00
2022-12-16T19:29:00.734Z,0.10
2022-12-16T19:31:44.145Z,0.00
2022-12-16T19:34:31.389Z,0.00
2022-12-16T19:37:14.074Z,-0.10
2022-12-16T19:39:56.874Z,-0.20
2022-12-16T19:42:39.535Z,-0.30
2022-12-16T19:45:24.815Z,-0.40
2022-12-16T19:48:07.315Z,-0.50
2022-12-16T19:50:56.256Z,-0.50
2022-12-16T19:53:39.315Z,-0.50
2022-12-16T19:56:22.125Z,-0.50
2022-12-16T19:59:10.331Z,-0.50
2022-12-16T20:01:52.862Z,-0.60
2022-12-16T20:04:37.349Z,-0.50
2022-12-16T20:07:23.448Z,-0.60
2022-12-16T20:10:08.385Z,-0.60
2022-12-16T20:12:52.234Z,-0.60
2022-12-16T20:15:40.986Z,-0.50
2022-12-16T20:18:23.791Z,-0.40
2022-12-16T20:21:06.448Z,-0.40
2022-12-16T20:23:52.064Z,-0.40
2022-12-16T20:26:35.020Z,-0.40
2022-12-16T20:29:17.656Z,-0.40
2022-12-16T20:32:00.188Z,-0.40
2022-12-16T20:34:42.723Z,-0.30
2022-12-16T20:37:25.625Z,-0.20
2022-12-16T20:40:13.101Z,-0.40
2022-12-16T20:42:55.657Z,-0.50
2022-12-16T20:45:39.012Z,-0.50
2022-12-16T20:48:22.005Z,-0.20
2022-12-16T20:51:11.338Z,-0.20
2022-12-16T20:53:53.860Z,-0.20
2022-12-16T20:56:42.023Z,0.10
2022-12-16T20:59:24.630Z,0.00
2022-12-16T21:02:24.400Z,-0.20
2022-12-16T21:05:08.468Z,0.00
2022-12-16T21:07:51.963Z,0.20
2022-12-16T21:10:34.510Z,0.30
2022-12-16T21:13:28.187Z,0.10
2022-12-16T21:16:14.212Z,0.10
2022-12-16T21:18:56.851Z,0.20
2022-12-16T21:21:39.383Z,0.00
2022-12-16T21:24:23.034Z,-0.10
2022-12-16T21:27:05.577Z,-0.20
2022-12-16T21:29:50.722Z,-0.30
2022-12-16T21:32:36.383Z,-0.30
2022-12-16T21:35:22.888Z,-0.30
2022-12-16T21:38:07.191Z,-0.40
2022-12-16T21:40:49.767Z,-0.20
2022-12-16T21:43:33.593Z,-0.10
2022-12-16T21:46:18.732Z,-0.20
2022-12-16T21:49:01.314Z,0.10
2022-12-16T21:51:43.870Z,0.10
2022-12-16T21:54:26.420Z,0.00
2022-12-16T21:57:09.709Z,-0.10
2022-12-16T21:59:52.637Z,-0.20
2022-12-16T22:02:41.499Z,-0.10
2022-12-16T22:05:24.238Z,-0.10
2022-12-16T22:08:21.320Z,-0.30
2022-12-16T22:11:03.859Z,-0.30
2022-12-16T22:13:46.358Z,0.00
2022-12-16T22:16:31.172Z,0.10
2022-12-16T22:19:16.474Z,0.20
2022-12-16T22:21:59.104Z,0.30
2022-12-16T22:24:41.639Z,0.20
2022-12-16T22:27:24.289Z,0.20
2022-12-16T22:30:07.150Z,0.30
2022-12-16T22:32:49.738Z,0.30
2022-12-16T22:35:37.354Z,0.40
2022-12-16T22:38:20.058Z,0.40
2022-12-16T22:41:10.710Z,0.50
2022-12-16T22:43:53.380Z,0.50
2022-12-16T22:46:39.062Z,0.50
2022-12-16T22:49:24.218Z,0.50
2022-12-16T22:52:09.372Z,0.60
2022-12-16T22:55:03.588Z,0.60
2022-12-16T22:57:47.983Z,0.50
2022-12-16T23:00:47.323Z,0.30
2022-12-16T23:03:32.430Z,0.10
2022-12-16T23:06:20.510Z,0.00
2022-12-16T23:09:05.646Z,-0.10
2022-12-16T23:11:51.732Z,-0.10
2022-12-16T23:14:39.308Z,-0.20
2022-12-16T23:17:26.272Z,-0.40
2022-12-16T23:20:08.807Z,-0.40
2022-12-16T23:22:52.254Z,-0.40
2022-12-16T23:25:37.419Z,-0.20
2022-12-16T23:28:21.244Z,-0.20
2022-12-16T23:31:07.981Z,-0.20
2022-12-16T23:33:53.617Z,-0.30
2022-12-16T23:36:39.349Z,-0.20
2022-12-16T23:39:21.942Z,-0.30
2022-12-16T23:42:07.082Z,-0.30
2022-12-16T23:44:55.237Z,-0.40
2022-12-16T23:47:39.166Z,-0.50
2022-12-16T23:50:23.201Z,-0.50
2022-12-16T23:53:05.762Z,-0.40
2022-12-16T23:55:48.440Z,-0.40
2022-12-16T23:58:33.545Z,-0.50
